sensor_id;sensor_type;location;lat;lon;timestamp;P1;durP1;ratioP1;P2;durP2;ratioP2
17235;SDS011;8734;59.272;17.780;2024-01-30T00:01:36;40.00;;;9.67;;
17235;SDS011;8734;59.272;17.780;2024-01-30T00:04:04;53.10;;;12.47;;
17235;SDS011;8734;59.272;17.780;2024-01-30T00:06:34;63.73;;;13.03;;
17235;SDS011;8734;59.272;17.780;2024-01-30T00:09:02;45.90;;;12.70;;
17235;SDS011;8734;59.272;17.780;2024-01-30T00:11:31;59.20;;;12.77;;
17235;SDS011;8734;59.272;17.780;2024-01-30T00:13:59;45.47;;;11.83;;
17235;SDS011;8734;59.272;17.780;2024-01-30T00:16:28;59.67;;;11.87;;
17235;SDS011;8734;59.272;17.780;2024-01-30T00:18:56;51.33;;;11.23;;
17235;SDS011;8734;59.272;17.780;2024-01-30T00:21:24;50.80;;;12.37;;
17235;SDS011;8734;59.272;17.780;2024-01-30T00:23:54;46.03;;;11.80;;
17235;SDS011;8734;59.272;17.780;2024-01-30T00:26:22;48.90;;;12.10;;
17235;SDS011;8734;59.272;17.780;2024-01-30T00:28:50;53.83;;;11.87;;
17235;SDS011;8734;59.272;17.780;2024-01-30T00:31:19;34.20;;;11.17;;
17235;SDS011;8734;59.272;17.780;2024-01-30T00:33:47;61.43;;;11.40;;
17235;SDS011;8734;59.272;17.780;2024-01-30T00:36:15;70.63;;;13.57;;
17235;SDS011;8734;59.272;17.780;2024-01-30T00:38:43;70.33;;;13.70;;
17235;SDS011;8734;59.272;17.780;2024-01-30T00:41:13;75.77;;;14.83;;
17235;SDS011;8734;59.272;17.780;2024-01-30T00:43:41;93.77;;;14.93;;
17235;SDS011;8734;59.272;17.780;2024-01-30T00:46:09;88.50;;;16.13;;
17235;SDS011;8734;59.272;17.780;2024-01-30T00:48:38;85.93;;;15.30;;
17235;SDS011;8734;59.272;17.780;2024-01-30T00:51:06;68.50;;;14.70;;
17235;SDS011;8734;59.272;17.780;2024-01-30T00:53:35;69.27;;;14.83;;
17235;SDS011;8734;59.272;17.780;2024-01-30T00:56:03;72.67;;;14.00;;
17235;SDS011;8734;59.272;17.780;2024-01-30T00:58:33;87.20;;;14.07;;
17235;SDS011;8734;59.272;17.780;2024-01-30T01:01:02;54.97;;;13.20;;
17235;SDS011;8734;59.272;17.780;2024-01-30T01:03:30;48.00;;;12.60;;
17235;SDS011;8734;59.272;17.780;2024-01-30T01:05:58;54.77;;;15.03;;
17235;SDS011;8734;59.272;17.780;2024-01-30T01:08:27;68.50;;;16.33;;
17235;SDS011;8734;59.272;17.780;2024-01-30T01:10:55;55.77;;;12.93;;
17235;SDS011;8734;59.272;17.780;2024-01-30T01:13:23;63.43;;;13.20;;
17235;SDS011;8734;59.272;17.780;2024-01-30T01:15:53;50.33;;;13.47;;
17235;SDS011;8734;59.272;17.780;2024-01-30T01:18:21;59.57;;;14.47;;
17235;SDS011;8734;59.272;17.780;2024-01-30T01:20:49;56.03;;;14.70;;
17235;SDS011;8734;59.272;17.780;2024-01-30T01:23:18;54.37;;;12.67;;
17235;SDS011;8734;59.272;17.780;2024-01-30T01:25:46;54.47;;;12.73;;
17235;SDS011;8734;59.272;17.780;2024-01-30T01:28:14;51.27;;;13.33;;
17235;SDS011;8734;59.272;17.780;2024-01-30T01:30:43;59.60;;;12.60;;
17235;SDS011;8734;59.272;17.780;2024-01-30T01:33:12;66.63;;;15.63;;
17235;SDS011;8734;59.272;17.780;2024-01-30T01:35:42;105.07;;;15.60;;
17235;SDS011;8734;59.272;17.780;2024-01-30T01:38:10;95.47;;;15.67;;
17235;SDS011;8734;59.272;17.780;2024-01-30T01:40:38;77.60;;;15.07;;
17235;SDS011;8734;59.272;17.780;2024-01-30T01:43:07;62.33;;;13.80;;
17235;SDS011;8734;59.272;17.780;2024-01-30T01:45:35;87.23;;;14.40;;
17235;SDS011;8734;59.272;17.780;2024-01-30T01:48:04;102.17;;;15.97;;
17235;SDS011;8734;59.272;17.780;2024-01-30T01:50:34;81.67;;;15.50;;
17235;SDS011;8734;59.272;17.780;2024-01-30T01:53:05;102.57;;;16.40;;
17235;SDS011;8734;59.272;17.780;2024-01-30T01:55:35;174.23;;;18.90;;
17235;SDS011;8734;59.272;17.780;2024-01-30T01:58:04;132.80;;;16.83;;
17235;SDS011;8734;59.272;17.780;2024-01-30T02:00:32;126.77;;;17.03;;
17235;SDS011;8734;59.272;17.780;2024-01-30T02:03:01;181.80;;;18.43;;
17235;SDS011;8734;59.272;17.780;2024-01-30T02:05:31;183.23;;;16.97;;
17235;SDS011;8734;59.272;17.780;2024-01-30T02:08:01;143.33;;;16.33;;
17235;SDS011;8734;59.272;17.780;2024-01-30T02:10:30;173.70;;;17.00;;
17235;SDS011;8734;59.272;17.780;2024-01-30T02:12:58;156.03;;;15.80;;
17235;SDS011;8734;59.272;17.780;2024-01-30T02:15:26;147.00;;;16.23;;
17235;SDS011;8734;59.272;17.780;2024-01-30T02:17:55;225.93;;;16.97;;
17235;SDS011;8734;59.272;17.780;2024-01-30T02:20:24;210.67;;;18.67;;
17235;SDS011;8734;59.272;17.780;2024-01-30T02:22:57;153.07;;;15.63;;
17235;SDS011;8734;59.272;17.780;2024-01-30T02:25:31;136.80;;;14.80;;
17235;SDS011;8734;59.272;17.780;2024-01-30T02:28:01;126.80;;;15.60;;
17235;SDS011;8734;59.272;17.780;2024-01-30T02:30:29;150.83;;;15.00;;
17235;SDS011;8734;59.272;17.780;2024-01-30T02:32:57;118.30;;;14.17;;
17235;SDS011;8734;59.272;17.780;2024-01-30T02:35:26;181.63;;;16.33;;
17235;SDS011;8734;59.272;17.780;2024-01-30T02:37:54;179.10;;;16.77;;
17235;SDS011;8734;59.272;17.780;2024-01-30T02:40:23;308.97;;;17.97;;
17235;SDS011;8734;59.272;17.780;2024-01-30T02:42:52;202.57;;;15.00;;
17235;SDS011;8734;59.272;17.780;2024-01-30T02:45:20;130.70;;;14.47;;
17235;SDS011;8734;59.272;17.780;2024-01-30T02:47:48;274.00;;;15.80;;
17235;SDS011;8734;59.272;17.780;2024-01-30T02:50:16;301.13;;;19.90;;
17235;SDS011;8734;59.272;17.780;2024-01-30T02:52:45;80.47;;;12.67;;
17235;SDS011;8734;59.272;17.780;2024-01-30T02:55:13;123.13;;;14.67;;
17235;SDS011;8734;59.272;17.780;2024-01-30T02:57:45;386.23;;;17.20;;
17235;SDS011;8734;59.272;17.780;2024-01-30T03:00:13;331.70;;;17.67;;
17235;SDS011;8734;59.272;17.780;2024-01-30T03:02:42;298.70;;;14.60;;
17235;SDS011;8734;59.272;17.780;2024-01-30T03:05:10;86.00;;;11.50;;
17235;SDS011;8734;59.272;17.780;2024-01-30T03:07:38;63.17;;;11.40;;
17235;SDS011;8734;59.272;17.780;2024-01-30T03:10:07;188.50;;;13.97;;
17235;SDS011;8734;59.272;17.780;2024-01-30T03:12:35;104.30;;;11.53;;
17235;SDS011;8734;59.272;17.780;2024-01-30T03:15:05;232.20;;;14.53;;
17235;SDS011;8734;59.272;17.780;2024-01-30T03:17:36;345.00;;;17.43;;
17235;SDS011;8734;59.272;17.780;2024-01-30T03:20:05;276.10;;;14.40;;
17235;SDS011;8734;59.272;17.780;2024-01-30T03:22:33;238.50;;;15.40;;
17235;SDS011;8734;59.272;17.780;2024-01-30T03:25:02;250.40;;;16.77;;
17235;SDS011;8734;59.272;17.780;2024-01-30T03:27:31;287.80;;;18.77;;
17235;SDS011;8734;59.272;17.780;2024-01-30T03:29:59;128.20;;;12.90;;
17235;SDS011;8734;59.272;17.780;2024-01-30T03:32:28;158.23;;;12.50;;
17235;SDS011;8734;59.272;17.780;2024-01-30T03:34:56;308.10;;;15.57;;
17235;SDS011;8734;59.272;17.780;2024-01-30T03:37:26;220.13;;;16.27;;
17235;SDS011;8734;59.272;17.780;2024-01-30T03:39:54;225.93;;;15.47;;
17235;SDS011;8734;59.272;17.780;2024-01-30T03:42:22;235.37;;;14.47;;
17235;SDS011;8734;59.272;17.780;2024-01-30T03:44:50;185.07;;;13.27;;
17235;SDS011;8734;59.272;17.780;2024-01-30T03:47:20;138.17;;;13.17;;
17235;SDS011;8734;59.272;17.780;2024-01-30T03:49:49;216.77;;;13.93;;
17235;SDS011;8734;59.272;17.780;2024-01-30T03:52:19;251.77;;;16.00;;
17235;SDS011;8734;59.272;17.780;2024-01-30T03:54:48;199.20;;;12.93;;
17235;SDS011;8734;59.272;17.780;2024-01-30T03:57:16;105.30;;;10.90;;
17235;SDS011;8734;59.272;17.780;2024-01-30T03:59:44;212.80;;;12.70;;
17235;SDS011;8734;59.272;17.780;2024-01-30T04:02:12;437.23;;;18.20;;
17235;SDS011;8734;59.272;17.780;2024-01-30T04:04:41;279.13;;;15.47;;
17235;SDS011;8734;59.272;17.780;2024-01-30T04:07:11;154.93;;;11.43;;
17235;SDS011;8734;59.272;17.780;2024-01-30T04:09:39;206.00;;;15.23;;
17235;SDS011;8734;59.272;17.780;2024-01-30T04:12:07;200.03;;;14.13;;
17235;SDS011;8734;59.272;17.780;2024-01-30T04:14:37;160.83;;;12.97;;
17235;SDS011;8734;59.272;17.780;2024-01-30T04:17:06;160.40;;;14.73;;
17235;SDS011;8734;59.272;17.780;2024-01-30T04:19:36;138.20;;;12.33;;
17235;SDS011;8734;59.272;17.780;2024-01-30T04:22:05;108.70;;;11.57;;
17235;SDS011;8734;59.272;17.780;2024-01-30T04:24:35;110.13;;;12.00;;
17235;SDS011;8734;59.272;17.780;2024-01-30T04:27:04;153.20;;;15.30;;
17235;SDS011;8734;59.272;17.780;2024-01-30T04:29:32;103.40;;;11.40;;
17235;SDS011;8734;59.272;17.780;2024-01-30T04:32:00;176.97;;;12.73;;
17235;SDS011;8734;59.272;17.780;2024-01-30T04:34:28;94.77;;;10.37;;
17235;SDS011;8734;59.272;17.780;2024-01-30T04:36:56;103.30;;;11.10;;
17235;SDS011;8734;59.272;17.780;2024-01-30T04:39:25;200.17;;;20.83;;
17235;SDS011;8734;59.272;17.780;2024-01-30T04:41:54;174.23;;;13.00;;
17235;SDS011;8734;59.272;17.780;2024-01-30T04:44:22;178.07;;;17.67;;
17235;SDS011;8734;59.272;17.780;2024-01-30T04:46:51;146.27;;;13.17;;
17235;SDS011;8734;59.272;17.780;2024-01-30T04:49:19;111.67;;;11.40;;
17235;SDS011;8734;59.272;17.780;2024-01-30T04:51:47;101.87;;;14.13;;
17235;SDS011;8734;59.272;17.780;2024-01-30T04:54:15;153.90;;;10.70;;
17235;SDS011;8734;59.272;17.780;2024-01-30T04:56:44;119.93;;;11.40;;
17235;SDS011;8734;59.272;17.780;2024-01-30T04:59:13;134.03;;;11.90;;
17235;SDS011;8734;59.272;17.780;2024-01-30T05:01:41;180.73;;;12.90;;
17235;SDS011;8734;59.272;17.780;2024-01-30T05:04:10;135.67;;;9.90;;
17235;SDS011;8734;59.272;17.780;2024-01-30T05:06:43;149.87;;;12.53;;
17235;SDS011;8734;59.272;17.780;2024-01-30T05:09:11;56.10;;;10.13;;
17235;SDS011;8734;59.272;17.780;2024-01-30T05:11:40;129.37;;;13.50;;
17235;SDS011;8734;59.272;17.780;2024-01-30T05:14:08;81.77;;;11.40;;
17235;SDS011;8734;59.272;17.780;2024-01-30T05:16:38;126.27;;;11.50;;
17235;SDS011;8734;59.272;17.780;2024-01-30T05:19:07;121.30;;;10.43;;
17235;SDS011;8734;59.272;17.780;2024-01-30T05:21:35;100.37;;;10.90;;
17235;SDS011;8734;59.272;17.780;2024-01-30T05:24:04;44.53;;;9.30;;
17235;SDS011;8734;59.272;17.780;2024-01-30T05:26:33;104.67;;;10.60;;
17235;SDS011;8734;59.272;17.780;2024-01-30T05:29:01;108.47;;;10.87;;
17235;SDS011;8734;59.272;17.780;2024-01-30T05:31:29;112.83;;;12.50;;
17235;SDS011;8734;59.272;17.780;2024-01-30T05:33:59;75.47;;;11.07;;
17235;SDS011;8734;59.272;17.780;2024-01-30T05:36:28;56.57;;;8.60;;
17235;SDS011;8734;59.272;17.780;2024-01-30T05:38:56;58.57;;;9.73;;
17235;SDS011;8734;59.272;17.780;2024-01-30T05:41:24;54.60;;;10.27;;
17235;SDS011;8734;59.272;17.780;2024-01-30T05:43:52;94.30;;;9.87;;
17235;SDS011;8734;59.272;17.780;2024-01-30T05:46:21;107.47;;;10.33;;
17235;SDS011;8734;59.272;17.780;2024-01-30T05:48:51;54.10;;;9.20;;
17235;SDS011;8734;59.272;17.780;2024-01-30T05:51:20;91.70;;;11.37;;
17235;SDS011;8734;59.272;17.780;2024-01-30T05:53:49;147.03;;;9.63;;
17235;SDS011;8734;59.272;17.780;2024-01-30T05:56:17;98.30;;;8.93;;
17235;SDS011;8734;59.272;17.780;2024-01-30T05:58:45;161.07;;;9.37;;
17235;SDS011;8734;59.272;17.780;2024-01-30T06:01:13;180.87;;;10.87;;
17235;SDS011;8734;59.272;17.780;2024-01-30T06:03:42;186.37;;;11.33;;
17235;SDS011;8734;59.272;17.780;2024-01-30T06:06:10;64.60;;;8.87;;
17235;SDS011;8734;59.272;17.780;2024-01-30T06:08:40;44.83;;;8.53;;
17235;SDS011;8734;59.272;17.780;2024-01-30T06:11:09;81.93;;;8.40;;
17235;SDS011;8734;59.272;17.780;2024-01-30T06:13:38;138.63;;;9.20;;
17235;SDS011;8734;59.272;17.780;2024-01-30T06:16:09;95.50;;;8.17;;
17235;SDS011;8734;59.272;17.780;2024-01-30T06:18:38;67.67;;;8.50;;
17235;SDS011;8734;59.272;17.780;2024-01-30T06:21:07;162.13;;;10.03;;
17235;SDS011;8734;59.272;17.780;2024-01-30T06:23:39;99.60;;;12.13;;
17235;SDS011;8734;59.272;17.780;2024-01-30T06:26:08;85.77;;;9.13;;
17235;SDS011;8734;59.272;17.780;2024-01-30T06:28:36;176.30;;;10.90;;
17235;SDS011;8734;59.272;17.780;2024-01-30T06:31:05;105.73;;;9.43;;
17235;SDS011;8734;59.272;17.780;2024-01-30T06:33:33;87.43;;;9.13;;
17235;SDS011;8734;59.272;17.780;2024-01-30T06:36:02;104.17;;;9.23;;
17235;SDS011;8734;59.272;17.780;2024-01-30T06:38:30;124.43;;;9.97;;
17235;SDS011;8734;59.272;17.780;2024-01-30T06:40:59;247.53;;;13.03;;
17235;SDS011;8734;59.272;17.780;2024-01-30T06:43:28;243.20;;;12.13;;
17235;SDS011;8734;59.272;17.780;2024-01-30T06:45:56;193.63;;;12.20;;
17235;SDS011;8734;59.272;17.780;2024-01-30T06:48:24;92.13;;;9.13;;
17235;SDS011;8734;59.272;17.780;2024-01-30T06:50:53;169.13;;;11.13;;
17235;SDS011;8734;59.272;17.780;2024-01-30T06:53:21;139.87;;;11.63;;
17235;SDS011;8734;59.272;17.780;2024-01-30T06:55:51;111.90;;;10.37;;
17235;SDS011;8734;59.272;17.780;2024-01-30T06:58:21;129.07;;;10.90;;
17235;SDS011;8734;59.272;17.780;2024-01-30T07:00:49;129.67;;;11.87;;
17235;SDS011;8734;59.272;17.780;2024-01-30T07:03:17;64.40;;;10.10;;
17235;SDS011;8734;59.272;17.780;2024-01-30T07:05:46;128.03;;;11.73;;
17235;SDS011;8734;59.272;17.780;2024-01-30T07:08:14;87.70;;;9.97;;
17235;SDS011;8734;59.272;17.780;2024-01-30T07:10:44;157.83;;;13.37;;
17235;SDS011;8734;59.272;17.780;2024-01-30T07:13:12;131.23;;;11.70;;
17235;SDS011;8734;59.272;17.780;2024-01-30T07:15:44;161.73;;;11.17;;
17235;SDS011;8734;59.272;17.780;2024-01-30T07:18:13;121.80;;;12.17;;
17235;SDS011;8734;59.272;17.780;2024-01-30T07:20:41;70.33;;;11.00;;
17235;SDS011;8734;59.272;17.780;2024-01-30T07:23:12;69.30;;;10.47;;
17235;SDS011;8734;59.272;17.780;2024-01-30T07:25:43;42.70;;;9.93;;
17235;SDS011;8734;59.272;17.780;2024-01-30T07:28:15;118.47;;;11.53;;
17235;SDS011;8734;59.272;17.780;2024-01-30T07:30:45;84.50;;;10.80;;
17235;SDS011;8734;59.272;17.780;2024-01-30T07:33:14;63.83;;;11.33;;
17235;SDS011;8734;59.272;17.780;2024-01-30T07:35:43;75.73;;;10.77;;
17235;SDS011;8734;59.272;17.780;2024-01-30T07:38:12;48.07;;;10.50;;
17235;SDS011;8734;59.272;17.780;2024-01-30T07:40:40;61.53;;;10.00;;
17235;SDS011;8734;59.272;17.780;2024-01-30T07:43:09;129.10;;;11.53;;
17235;SDS011;8734;59.272;17.780;2024-01-30T07:45:37;97.23;;;12.53;;
17235;SDS011;8734;59.272;17.780;2024-01-30T07:48:07;52.30;;;11.07;;
17235;SDS011;8734;59.272;17.780;2024-01-30T07:50:35;109.17;;;11.73;;
17235;SDS011;8734;59.272;17.780;2024-01-30T07:53:04;82.23;;;11.67;;
17235;SDS011;8734;59.272;17.780;2024-01-30T07:55:48;135.73;;;11.87;;
17235;SDS011;8734;59.272;17.780;2024-01-30T07:58:16;82.17;;;10.87;;
17235;SDS011;8734;59.272;17.780;2024-01-30T08:00:45;65.07;;;10.00;;
17235;SDS011;8734;59.272;17.780;2024-01-30T08:03:15;83.20;;;11.17;;
17235;SDS011;8734;59.272;17.780;2024-01-30T08:05:44;58.73;;;9.20;;
17235;SDS011;8734;59.272;17.780;2024-01-30T08:08:13;42.00;;;9.57;;
17235;SDS011;8734;59.272;17.780;2024-01-30T08:10:41;78.73;;;9.87;;
17235;SDS011;8734;59.272;17.780;2024-01-30T08:13:09;76.67;;;9.37;;
17235;SDS011;8734;59.272;17.780;2024-01-30T08:15:37;56.07;;;8.90;;
17235;SDS011;8734;59.272;17.780;2024-01-30T08:18:06;78.33;;;12.70;;
17235;SDS011;8734;59.272;17.780;2024-01-30T08:20:35;81.73;;;10.03;;
17235;SDS011;8734;59.272;17.780;2024-01-30T08:23:04;58.00;;;10.03;;
17235;SDS011;8734;59.272;17.780;2024-01-30T08:25:32;72.30;;;9.53;;
17235;SDS011;8734;59.272;17.780;2024-01-30T08:28:00;94.50;;;9.90;;
17235;SDS011;8734;59.272;17.780;2024-01-30T08:30:28;120.00;;;10.27;;
17235;SDS011;8734;59.272;17.780;2024-01-30T08:32:56;54.07;;;9.13;;
17235;SDS011;8734;59.272;17.780;2024-01-30T08:35:25;77.47;;;9.60;;
17235;SDS011;8734;59.272;17.780;2024-01-30T08:37:55;88.93;;;10.87;;
17235;SDS011;8734;59.272;17.780;2024-01-30T08:40:24;79.53;;;10.23;;
17235;SDS011;8734;59.272;17.780;2024-01-30T08:42:52;61.10;;;10.27;;
17235;SDS011;8734;59.272;17.780;2024-01-30T08:45:20;58.60;;;9.20;;
17235;SDS011;8734;59.272;17.780;2024-01-30T08:47:49;60.37;;;10.73;;
17235;SDS011;8734;59.272;17.780;2024-01-30T08:50:17;79.10;;;12.60;;
17235;SDS011;8734;59.272;17.780;2024-01-30T08:52:45;73.00;;;10.93;;
17235;SDS011;8734;59.272;17.780;2024-01-30T08:55:17;67.80;;;11.90;;
17235;SDS011;8734;59.272;17.780;2024-01-30T08:57:45;74.50;;;11.67;;
17235;SDS011;8734;59.272;17.780;2024-01-30T09:00:14;59.17;;;11.57;;
17235;SDS011;8734;59.272;17.780;2024-01-30T09:02:43;48.83;;;11.13;;
17235;SDS011;8734;59.272;17.780;2024-01-30T09:05:11;49.97;;;10.73;;
17235;SDS011;8734;59.272;17.780;2024-01-30T09:07:41;59.03;;;12.13;;
17235;SDS011;8734;59.272;17.780;2024-01-30T09:10:10;65.93;;;11.53;;
17235;SDS011;8734;59.272;17.780;2024-01-30T09:12:41;47.00;;;10.87;;
17235;SDS011;8734;59.272;17.780;2024-01-30T09:15:09;51.80;;;11.70;;
17235;SDS011;8734;59.272;17.780;2024-01-30T09:17:38;59.73;;;12.20;;
17235;SDS011;8734;59.272;17.780;2024-01-30T09:20:06;46.83;;;11.30;;
17235;SDS011;8734;59.272;17.780;2024-01-30T09:22:35;51.87;;;11.63;;
17235;SDS011;8734;59.272;17.780;2024-01-30T09:25:04;58.70;;;12.00;;
17235;SDS011;8734;59.272;17.780;2024-01-30T09:27:32;54.17;;;12.37;;
17235;SDS011;8734;59.272;17.780;2024-01-30T09:30:02;63.00;;;12.60;;
17235;SDS011;8734;59.272;17.780;2024-01-30T09:32:31;38.00;;;11.43;;
17235;SDS011;8734;59.272;17.780;2024-01-30T09:34:59;45.13;;;11.77;;
17235;SDS011;8734;59.272;17.780;2024-01-30T09:37:27;50.40;;;10.87;;
17235;SDS011;8734;59.272;17.780;2024-01-30T09:39:56;50.10;;;11.83;;
17235;SDS011;8734;59.272;17.780;2024-01-30T09:42:26;57.63;;;12.33;;
17235;SDS011;8734;59.272;17.780;2024-01-30T09:45:00;60.70;;;13.07;;
17235;SDS011;8734;59.272;17.780;2024-01-30T09:47:31;44.30;;;11.23;;
17235;SDS011;8734;59.272;17.780;2024-01-30T09:50:00;51.50;;;12.97;;
17235;SDS011;8734;59.272;17.780;2024-01-30T09:52:32;45.83;;;11.93;;
17235;SDS011;8734;59.272;17.780;2024-01-30T09:55:01;59.63;;;12.13;;
17235;SDS011;8734;59.272;17.780;2024-01-30T09:57:29;63.30;;;13.50;;
17235;SDS011;8734;59.272;17.780;2024-01-30T09:59:58;54.83;;;12.57;;
17235;SDS011;8734;59.272;17.780;2024-01-30T10:02:27;52.30;;;13.43;;
17235;SDS011;8734;59.272;17.780;2024-01-30T10:04:56;49.23;;;13.43;;
17235;SDS011;8734;59.272;17.780;2024-01-30T10:07:24;47.07;;;12.87;;
17235;SDS011;8734;59.272;17.780;2024-01-30T10:09:53;56.07;;;14.40;;
17235;SDS011;8734;59.272;17.780;2024-01-30T10:12:22;57.33;;;14.17;;
17235;SDS011;8734;59.272;17.780;2024-01-30T10:14:53;54.47;;;13.37;;
17235;SDS011;8734;59.272;17.780;2024-01-30T10:17:24;52.73;;;14.33;;
17235;SDS011;8734;59.272;17.780;2024-01-30T10:20:03;62.57;;;13.30;;
17235;SDS011;8734;59.272;17.780;2024-01-30T10:22:33;52.43;;;13.70;;
17235;SDS011;8734;59.272;17.780;2024-01-30T10:25:01;53.57;;;12.70;;
17235;SDS011;8734;59.272;17.780;2024-01-30T10:27:32;56.83;;;12.73;;
17235;SDS011;8734;59.272;17.780;2024-01-30T10:30:00;59.70;;;13.93;;
17235;SDS011;8734;59.272;17.780;2024-01-30T10:32:31;55.83;;;13.33;;
17235;SDS011;8734;59.272;17.780;2024-01-30T10:35:01;55.00;;;13.67;;
17235;SDS011;8734;59.272;17.780;2024-01-30T10:37:29;53.10;;;14.47;;
17235;SDS011;8734;59.272;17.780;2024-01-30T10:40:01;48.27;;;13.93;;
17235;SDS011;8734;59.272;17.780;2024-01-30T10:42:32;48.43;;;12.80;;
17235;SDS011;8734;59.272;17.780;2024-01-30T10:45:05;51.63;;;13.27;;
17235;SDS011;8734;59.272;17.780;2024-01-30T10:47:36;56.87;;;11.77;;
17235;SDS011;8734;59.272;17.780;2024-01-30T10:50:07;47.63;;;12.03;;
17235;SDS011;8734;59.272;17.780;2024-01-30T10:52:37;48.47;;;12.60;;
17235;SDS011;8734;59.272;17.780;2024-01-30T10:55:08;45.00;;;12.90;;
17235;SDS011;8734;59.272;17.780;2024-01-30T10:57:37;47.80;;;14.53;;
17235;SDS011;8734;59.272;17.780;2024-01-30T11:00:07;47.17;;;13.20;;
17235;SDS011;8734;59.272;17.780;2024-01-30T11:02:38;43.87;;;13.23;;
17235;SDS011;8734;59.272;17.780;2024-01-30T11:05:09;51.93;;;12.73;;
17235;SDS011;8734;59.272;17.780;2024-01-30T11:07:38;51.33;;;11.90;;
17235;SDS011;8734;59.272;17.780;2024-01-30T11:10:08;40.40;;;13.97;;
17235;SDS011;8734;59.272;17.780;2024-01-30T11:12:40;35.57;;;11.03;;
17235;SDS011;8734;59.272;17.780;2024-01-30T11:15:11;34.63;;;11.27;;
17235;SDS011;8734;59.272;17.780;2024-01-30T11:17:41;32.40;;;10.10;;
17235;SDS011;8734;59.272;17.780;2024-01-30T11:20:12;37.43;;;11.40;;
17235;SDS011;8734;59.272;17.780;2024-01-30T11:22:44;39.60;;;10.37;;
17235;SDS011;8734;59.272;17.780;2024-01-30T11:25:14;31.50;;;10.80;;
17235;SDS011;8734;59.272;17.780;2024-01-30T11:27:43;28.27;;;9.73;;
17235;SDS011;8734;59.272;17.780;2024-01-30T11:30:20;27.10;;;9.83;;
17235;SDS011;8734;59.272;17.780;2024-01-30T11:32:59;33.70;;;10.93;;
17235;SDS011;8734;59.272;17.780;2024-01-30T11:35:30;28.80;;;9.87;;
17235;SDS011;8734;59.272;17.780;2024-01-30T11:38:01;33.00;;;10.47;;
17235;SDS011;8734;59.272;17.780;2024-01-30T11:40:30;30.90;;;9.67;;
17235;SDS011;8734;59.272;17.780;2024-01-30T11:43:00;36.80;;;11.07;;
17235;SDS011;8734;59.272;17.780;2024-01-30T11:45:31;34.53;;;11.67;;
17235;SDS011;8734;59.272;17.780;2024-01-30T11:48:00;36.60;;;12.97;;
17235;SDS011;8734;59.272;17.780;2024-01-30T11:50:32;33.87;;;11.27;;
17235;SDS011;8734;59.272;17.780;2024-01-30T11:53:01;43.63;;;11.93;;
17235;SDS011;8734;59.272;17.780;2024-01-30T11:55:29;38.10;;;11.30;;
17235;SDS011;8734;59.272;17.780;2024-01-30T11:58:00;31.40;;;11.17;;
17235;SDS011;8734;59.272;17.780;2024-01-30T12:00:29;33.03;;;11.73;;
17235;SDS011;8734;59.272;17.780;2024-01-30T12:03:00;38.27;;;11.67;;
17235;SDS011;8734;59.272;17.780;2024-01-30T12:05:29;39.80;;;12.03;;
17235;SDS011;8734;59.272;17.780;2024-01-30T12:07:59;33.70;;;11.50;;
17235;SDS011;8734;59.272;17.780;2024-01-30T12:10:28;37.30;;;12.10;;
17235;SDS011;8734;59.272;17.780;2024-01-30T12:12:57;31.43;;;11.23;;
17235;SDS011;8734;59.272;17.780;2024-01-30T12:15:26;33.57;;;12.20;;
17235;SDS011;8734;59.272;17.780;2024-01-30T12:18:03;42.10;;;12.57;;
17235;SDS011;8734;59.272;17.780;2024-01-30T12:20:35;28.07;;;11.40;;
17235;SDS011;8734;59.272;17.780;2024-01-30T12:23:03;32.07;;;11.67;;
17235;SDS011;8734;59.272;17.780;2024-01-30T12:25:32;31.03;;;10.23;;
17235;SDS011;8734;59.272;17.780;2024-01-30T12:28:00;29.63;;;10.33;;
17235;SDS011;8734;59.272;17.780;2024-01-30T12:30:29;31.57;;;10.43;;
17235;SDS011;8734;59.272;17.780;2024-01-30T12:32:58;23.03;;;8.90;;
17235;SDS011;8734;59.272;17.780;2024-01-30T12:35:26;21.00;;;8.57;;
17235;SDS011;8734;59.272;17.780;2024-01-30T12:38:00;24.97;;;9.10;;
17235;SDS011;8734;59.272;17.780;2024-01-30T12:40:28;18.00;;;8.20;;
17235;SDS011;8734;59.272;17.780;2024-01-30T12:42:57;21.13;;;8.43;;
17235;SDS011;8734;59.272;17.780;2024-01-30T12:45:25;19.13;;;8.33;;
17235;SDS011;8734;59.272;17.780;2024-01-30T12:47:53;17.37;;;8.07;;
17235;SDS011;8734;59.272;17.780;2024-01-30T12:50:22;22.77;;;9.23;;
17235;SDS011;8734;59.272;17.780;2024-01-30T12:52:50;23.00;;;9.33;;
17235;SDS011;8734;59.272;17.780;2024-01-30T12:55:20;18.73;;;8.40;;
17235;SDS011;8734;59.272;17.780;2024-01-30T12:57:48;22.57;;;9.63;;
17235;SDS011;8734;59.272;17.780;2024-01-30T13:00:17;18.57;;;8.53;;
17235;SDS011;8734;59.272;17.780;2024-01-30T13:02:45;19.80;;;8.17;;
17235;SDS011;8734;59.272;17.780;2024-01-30T13:05:15;25.67;;;8.27;;
17235;SDS011;8734;59.272;17.780;2024-01-30T13:07:44;18.93;;;9.50;;
17235;SDS011;8734;59.272;17.780;2024-01-30T13:10:12;21.73;;;9.43;;
17235;SDS011;8734;59.272;17.780;2024-01-30T13:12:42;23.63;;;9.50;;
17235;SDS011;8734;59.272;17.780;2024-01-30T13:15:10;23.17;;;9.93;;
17235;SDS011;8734;59.272;17.780;2024-01-30T13:17:38;26.63;;;10.53;;
17235;SDS011;8734;59.272;17.780;2024-01-30T13:20:09;31.53;;;11.17;;
17235;SDS011;8734;59.272;17.780;2024-01-30T13:22:38;27.63;;;9.87;;
17235;SDS011;8734;59.272;17.780;2024-01-30T13:25:06;22.27;;;10.33;;
17235;SDS011;8734;59.272;17.780;2024-01-30T13:27:35;28.77;;;11.83;;
17235;SDS011;8734;59.272;17.780;2024-01-30T13:30:07;32.60;;;11.77;;
17235;SDS011;8734;59.272;17.780;2024-01-30T13:32:36;26.43;;;10.10;;
17235;SDS011;8734;59.272;17.780;2024-01-30T13:35:07;29.97;;;10.83;;
17235;SDS011;8734;59.272;17.780;2024-01-30T13:37:35;36.57;;;12.13;;
17235;SDS011;8734;59.272;17.780;2024-01-30T13:40:04;28.70;;;10.57;;
17235;SDS011;8734;59.272;17.780;2024-01-30T13:42:39;22.07;;;10.83;;
17235;SDS011;8734;59.272;17.780;2024-01-30T13:45:09;30.00;;;10.67;;
17235;SDS011;8734;59.272;17.780;2024-01-30T13:47:38;26.57;;;9.13;;
17235;SDS011;8734;59.272;17.780;2024-01-30T13:50:07;20.43;;;9.97;;
17235;SDS011;8734;59.272;17.780;2024-01-30T13:52:41;20.50;;;8.67;;
17235;SDS011;8734;59.272;17.780;2024-01-30T13:55:11;18.70;;;9.40;;
17235;SDS011;8734;59.272;17.780;2024-01-30T13:57:40;25.27;;;9.33;;
17235;SDS011;8734;59.272;17.780;2024-01-30T14:00:11;19.83;;;8.70;;
17235;SDS011;8734;59.272;17.780;2024-01-30T14:02:43;19.03;;;9.43;;
17235;SDS011;8734;59.272;17.780;2024-01-30T14:05:11;20.03;;;8.57;;
17235;SDS011;8734;59.272;17.780;2024-01-30T14:07:42;20.27;;;8.93;;
17235;SDS011;8734;59.272;17.780;2024-01-30T14:10:11;21.13;;;8.90;;
17235;SDS011;8734;59.272;17.780;2024-01-30T14:12:42;24.23;;;8.93;;
17235;SDS011;8734;59.272;17.780;2024-01-30T14:15:14;18.43;;;8.30;;
17235;SDS011;8734;59.272;17.780;2024-01-30T14:17:54;18.00;;;9.07;;
17235;SDS011;8734;59.272;17.780;2024-01-30T14:20:24;18.57;;;8.93;;
17235;SDS011;8734;59.272;17.780;2024-01-30T14:22:52;15.33;;;7.33;;
17235;SDS011;8734;59.272;17.780;2024-01-30T14:25:23;16.90;;;8.47;;
17235;SDS011;8734;59.272;17.780;2024-01-30T14:27:54;18.40;;;9.10;;
17235;SDS011;8734;59.272;17.780;2024-01-30T14:30:24;19.23;;;8.70;;
17235;SDS011;8734;59.272;17.780;2024-01-30T14:32:54;19.10;;;9.07;;